createdAt,value
2016-11-13T00:00:28.203Z,0
2016-11-13T00:01:28.546Z,0
2016-11-13T00:02:28.488Z,0
2016-11-13T00:03:28.223Z,0
2016-11-13T00:04:28.309Z,0
2016-11-13T00:05:28.307Z,0
2016-11-13T00:06:29.233Z,0
2016-11-13T00:07:28.216Z,0
2016-11-13T00:08:28.952Z,0
2016-11-13T00:09:28.221Z,0
2016-11-13T00:10:29.090Z,0
2016-11-13T00:11:28.402Z,0
2016-11-13T00:12:29.544Z,0
2016-11-13T00:13:28.779Z,0
2016-11-13T00:14:28.197Z,0
2016-11-13T00:15:29.389Z,0
2016-11-13T00:16:28.220Z,0
2016-11-13T00:17:29.219Z,0
2016-11-13T00:18:28.747Z,0
2016-11-13T00:19:28.920Z,0
2016-11-13T00:20:28.587Z,0
2016-11-13T00:21:28.207Z,0
2016-11-13T00:22:28.717Z,0
2016-11-13T00:23:28.696Z,0
2016-11-13T00:24:28.258Z,0
2016-11-13T00:25:28.911Z,0
2016-11-13T00:26:28.628Z,0
2016-11-13T00:27:28.228Z,0
2016-11-13T00:28:28.246Z,0
2016-11-13T00:29:28.262Z,0
2016-11-13T00:30:28.203Z,0
2016-11-13T00:31:28.215Z,0
2016-11-13T00:32:28.218Z,0
2016-11-13T00:33:28.216Z,0
2016-11-13T00:34:28.606Z,0
2016-11-13T00:35:28.262Z,0
2016-11-13T00:36:28.293Z,0
2016-11-13T00:37:28.327Z,0
2016-11-13T00:38:28.227Z,0
2016-11-13T00:39:28.236Z,0
2016-11-13T00:40:28.262Z,0
2016-11-13T00:41:28.709Z,0
2016-11-13T00:42:28.242Z,0
2016-11-13T00:43:28.297Z,0
2016-11-13T00:44:28.243Z,0
2016-11-13T00:45:28.280Z,0
2016-11-13T00:46:28.351Z,0
2016-11-13T00:47:28.243Z,0
2016-11-13T00:48:28.283Z,0
2016-11-13T00:49:28.835Z,0
2016-11-13T00:50:28.482Z,0
2016-11-13T00:51:28.233Z,0
2016-11-13T00:52:28.240Z,0
2016-11-13T00:53:28.221Z,0
2016-11-13T00:54:28.315Z,0
2016-11-13T00:55:28.275Z,0
2016-11-13T00:56:28.272Z,0
2016-11-13T00:57:28.235Z,0
2016-11-13T00:58:28.226Z,0
2016-11-13T00:59:28.253Z,0
2016-11-13T01:00:28.234Z,0
2016-11-13T01:01:28.220Z,0
2016-11-13T01:02:28.232Z,0
2016-11-13T01:03:28.214Z,0
2016-11-13T01:04:28.258Z,0
2016-11-13T01:05:28.228Z,0
2016-11-13T01:06:28.244Z,0
2016-11-13T01:07:28.280Z,0
2016-11-13T01:08:28.239Z,0
2016-11-13T01:09:28.266Z,0
2016-11-13T01:10:28.239Z,0
2016-11-13T01:11:28.360Z,0
2016-11-13T01:12:28.280Z,0
2016-11-13T01:13:28.239Z,0
2016-11-13T01:14:28.396Z,0
2016-11-13T01:15:28.280Z,0
2016-11-13T01:16:28.226Z,0
2016-11-13T01:17:28.245Z,0
2016-11-13T01:18:28.267Z,0
2016-11-13T01:19:28.250Z,0
2016-11-13T01:20:28.252Z,0
2016-11-13T01:21:28.416Z,0
2016-11-13T01:22:28.268Z,0
2016-11-13T01:23:28.245Z,0
2016-11-13T01:24:28.245Z,0
2016-11-13T01:25:28.288Z,0
2016-11-13T01:26:28.616Z,0
2016-11-13T01:27:28.319Z,0
2016-11-13T01:28:28.247Z,0
2016-11-13T01:29:28.214Z,0
2016-11-13T01:30:28.236Z,0
2016-11-13T01:31:28.240Z,0
2016-11-13T01:32:28.277Z,0
2016-11-13T01:33:28.234Z,0
2016-11-13T01:34:28.291Z,0
2016-11-13T01:35:28.285Z,0
2016-11-13T01:36:28.249Z,0
2016-11-13T01:37:28.304Z,0
2016-11-13T01:38:28.336Z,0
2016-11-13T01:39:28.504Z,0
2016-11-13T01:40:28.317Z,0
2016-11-13T01:41:28.271Z,0
2016-11-13T01:42:28.981Z,0
2016-11-13T01:43:28.604Z,0
2016-11-13T01:44:28.255Z,0
2016-11-13T01:45:28.304Z,0
2016-11-13T01:46:28.729Z,0
2016-11-13T01:47:28.259Z,0
2016-11-13T01:48:28.313Z,0
2016-11-13T01:49:28.247Z,0
2016-11-13T01:50:28.501Z,0
2016-11-13T01:51:28.268Z,0
2016-11-13T01:52:28.244Z,0
2016-11-13T01:53:28.245Z,0
2016-11-13T01:54:28.905Z,0
2016-11-13T01:55:28.245Z,0
2016-11-13T01:56:28.279Z,0
2016-11-13T01:57:28.633Z,0
2016-11-13T01:58:28.235Z,0
2016-11-13T01:59:28.248Z,0
2016-11-13T02:00:28.290Z,0
2016-11-13T02:01:28.591Z,0
2016-11-13T02:02:28.265Z,0
2016-11-13T02:03:28.330Z,0
2016-11-13T02:04:28.287Z,0
2016-11-13T02:05:28.338Z,0
2016-11-13T02:06:28.297Z,0
2016-11-13T02:07:28.312Z,0
2016-11-13T02:08:28.374Z,0
2016-11-13T02:09:28.307Z,0
2016-11-13T02:10:28.272Z,0
2016-11-13T02:11:28.312Z,0
2016-11-13T02:12:28.286Z,0
2016-11-13T02:13:28.262Z,0
2016-11-13T02:14:28.408Z,0
2016-11-13T02:15:28.377Z,0
2016-11-13T02:16:28.320Z,0
2016-11-13T02:17:28.608Z,0
2016-11-13T02:18:28.307Z,0
2016-11-13T02:19:28.351Z,0
2016-11-13T02:20:28.319Z,0
2016-11-13T02:21:28.296Z,0
2016-11-13T02:22:28.248Z,0
2016-11-13T02:23:28.307Z,0
2016-11-13T02:24:28.691Z,0
2016-11-13T02:25:28.296Z,0
2016-11-13T02:26:28.280Z,0
2016-11-13T02:27:28.255Z,0
2016-11-13T02:28:28.523Z,0
2016-11-13T02:29:28.261Z,0
2016-11-13T02:30:28.270Z,0
2016-11-13T02:31:28.699Z,0
2016-11-13T02:32:28.739Z,0
2016-11-13T02:33:28.424Z,0
2016-11-13T02:34:28.357Z,0
2016-11-13T02:35:28.363Z,0
2016-11-13T02:36:28.437Z,0
2016-11-13T02:37:28.267Z,0
2016-11-13T02:38:29.298Z,0
2016-11-13T02:39:28.499Z,0
2016-11-13T02:40:28.331Z,0
2016-11-13T02:41:28.340Z,0
2016-11-13T02:42:28.329Z,0
2016-11-13T02:43:28.352Z,0
2016-11-13T02:44:28.309Z,0
2016-11-13T02:45:28.318Z,0
2016-11-13T02:46:28.281Z,0
2016-11-13T02:47:28.437Z,0
2016-11-13T02:48:28.312Z,0
2016-11-13T02:49:28.301Z,0
2016-11-13T02:50:28.270Z,0
2016-11-13T02:51:28.310Z,0
2016-11-13T02:52:28.292Z,0
2016-11-13T02:53:28.313Z,0
2016-11-13T02:54:28.273Z,0
2016-11-13T02:55:28.244Z,0
2016-11-13T02:56:28.297Z,0
2016-11-13T02:57:28.297Z,0
2016-11-13T02:58:28.277Z,0
2016-11-13T02:59:28.283Z,0
2016-11-13T03:00:28.262Z,0
2016-11-13T03:01:28.310Z,0
2016-11-13T03:02:28.289Z,0
2016-11-13T03:03:28.390Z,0
2016-11-13T03:04:28.332Z,0
2016-11-13T03:05:28.324Z,0
2016-11-13T03:06:28.373Z,0
2016-11-13T03:07:28.353Z,0
2016-11-13T03:08:28.272Z,0
2016-11-13T03:09:28.396Z,0
2016-11-13T03:10:28.340Z,0
2016-11-13T03:11:28.337Z,0
2016-11-13T03:12:28.358Z,0
2016-11-13T03:13:28.313Z,0
2016-11-13T03:14:28.342Z,0
2016-11-13T03:15:28.465Z,0
2016-11-13T03:16:28.363Z,0
2016-11-13T03:17:28.421Z,0
2016-11-13T03:18:28.368Z,0
2016-11-13T03:19:28.512Z,0
2016-11-13T03:20:28.433Z,0
2016-11-13T03:21:28.315Z,0
2016-11-13T03:22:28.328Z,0
2016-11-13T03:23:28.310Z,0
2016-11-13T03:24:28.379Z,0
2016-11-13T03:25:28.401Z,0
2016-11-13T03:26:28.433Z,0
2016-11-13T03:27:28.350Z,0
2016-11-13T03:28:28.419Z,0
2016-11-13T03:29:28.418Z,0
2016-11-13T03:30:28.337Z,0
2016-11-13T03:31:28.323Z,0
2016-11-13T03:32:28.315Z,0
2016-11-13T03:33:28.331Z,0
2016-11-13T03:34:28.386Z,0
2016-11-13T03:35:28.327Z,0
2016-11-13T03:36:28.371Z,0
2016-11-13T03:37:28.383Z,0
2016-11-13T03:38:28.337Z,0
2016-11-13T03:39:28.323Z,0
2016-11-13T03:40:28.304Z,0
2016-11-13T03:41:28.385Z,0
2016-11-13T03:42:28.361Z,0
2016-11-13T03:43:28.353Z,0
2016-11-13T03:44:28.411Z,0
2016-11-13T03:45:28.359Z,0
2016-11-13T03:46:28.421Z,0
2016-11-13T03:47:28.348Z,0
2016-11-13T03:48:28.329Z,0
2016-11-13T03:49:28.387Z,0
2016-11-13T03:50:28.337Z,0
2016-11-13T03:51:28.409Z,0
2016-11-13T03:52:28.366Z,0
2016-11-13T03:53:28.351Z,0
2016-11-13T03:54:29.224Z,0
2016-11-13T03:55:28.444Z,0
2016-11-13T03:56:28.395Z,0
2016-11-13T03:57:28.372Z,0
2016-11-13T03:58:29.046Z,0
2016-11-13T03:59:28.437Z,0
2016-11-13T04:00:28.411Z,0
2016-11-13T04:01:28.449Z,0
2016-11-13T04:02:28.460Z,0
2016-11-13T04:03:28.544Z,0
2016-11-13T04:04:28.412Z,0
2016-11-13T04:05:28.434Z,0
2016-11-13T04:06:28.443Z,0
2016-11-13T04:07:28.441Z,0
2016-11-13T04:08:28.491Z,0
2016-11-13T04:09:29.374Z,0
2016-11-13T04:10:28.440Z,0
2016-11-13T04:11:28.487Z,0
2016-11-13T04:12:28.474Z,0
2016-11-13T04:13:28.437Z,0
2016-11-13T04:14:28.484Z,0
2016-11-13T04:15:28.542Z,0
2016-11-13T04:16:28.549Z,0
2016-11-13T04:17:28.637Z,0
2016-11-13T04:18:28.650Z,0
2016-11-13T04:19:28.562Z,0
2016-11-13T04:20:28.936Z,0
2016-11-13T04:21:29.046Z,0
2016-11-13T04:22:28.481Z,0
2016-11-13T04:23:28.481Z,0
2016-11-13T04:24:28.521Z,0
2016-11-13T04:25:28.998Z,0
2016-11-13T04:26:28.545Z,0
2016-11-13T04:27:28.542Z,0
2016-11-13T04:28:28.514Z,0
2016-11-13T04:29:28.536Z,0
2016-11-13T04:30:29.141Z,0
2016-11-13T04:31:29.048Z,0
2016-11-13T04:32:29.008Z,0
2016-11-13T04:33:28.563Z,0
2016-11-13T04:34:28.669Z,0
2016-11-13T04:35:29.115Z,0
2016-11-13T04:36:29.298Z,0
2016-11-13T04:37:28.592Z,0
2016-11-13T04:38:29.542Z,0
2016-11-13T04:39:28.587Z,0
2016-11-13T04:40:28.454Z,0
2016-11-13T04:41:28.597Z,0
2016-11-13T04:42:28.565Z,0
2016-11-13T04:43:28.463Z,0
2016-11-13T04:44:28.575Z,0
2016-11-13T04:45:28.542Z,0
2016-11-13T04:46:28.598Z,0
2016-11-13T04:47:28.587Z,0
2016-11-13T04:48:28.656Z,0
2016-11-13T04:49:28.990Z,0
2016-11-13T04:50:28.581Z,0
2016-11-13T04:51:28.358Z,0
2016-11-13T04:52:28.554Z,0
2016-11-13T04:53:28.392Z,0
2016-11-13T04:54:28.395Z,0
2016-11-13T04:55:28.402Z,0
2016-11-13T04:56:28.686Z,0
2016-11-13T04:57:28.371Z,0
2016-11-13T04:58:28.403Z,0
2016-11-13T04:59:28.423Z,0
2016-11-13T05:00:28.408Z,0
2016-11-13T05:01:28.422Z,0
2016-11-13T05:02:28.426Z,0
2016-11-13T05:03:28.442Z,0
2016-11-13T05:04:28.485Z,0
2016-11-13T05:05:28.419Z,0
2016-11-13T05:06:28.418Z,0
2016-11-13T05:07:28.463Z,0
2016-11-13T05:08:28.432Z,0
2016-11-13T05:09:28.495Z,0
2016-11-13T05:10:28.466Z,0
2016-11-13T05:11:28.443Z,0
2016-11-13T05:12:28.449Z,0
2016-11-13T05:13:28.442Z,0
2016-11-13T05:14:28.418Z,0
2016-11-13T05:15:28.390Z,0
2016-11-13T05:16:28.394Z,0
2016-11-13T05:17:28.389Z,0
2016-11-13T05:18:28.384Z,0
2016-11-13T05:19:28.477Z,0
2016-11-13T05:20:28.482Z,0
2016-11-13T05:21:28.484Z,0
2016-11-13T05:22:28.406Z,0
2016-11-13T05:23:28.418Z,0
2016-11-13T05:24:28.415Z,0
2016-11-13T05:25:28.406Z,0
2016-11-13T05:26:28.422Z,0
2016-11-13T05:27:28.470Z,0
2016-11-13T05:28:28.416Z,0
2016-11-13T05:29:28.415Z,0
2016-11-13T05:30:28.408Z,0
2016-11-13T05:31:28.433Z,0
2016-11-13T05:32:28.426Z,0
2016-11-13T05:33:28.432Z,0
2016-11-13T05:34:28.477Z,0
2016-11-13T05:35:28.416Z,0
2016-11-13T05:36:28.468Z,0
2016-11-13T05:37:28.393Z,0
2016-11-13T05:38:28.473Z,0
2016-11-13T05:39:28.452Z,0
2016-11-13T05:40:28.416Z,0
2016-11-13T05:41:28.455Z,0
2016-11-13T05:42:28.444Z,0
2016-11-13T05:43:28.391Z,0
2016-11-13T05:44:28.416Z,0
2016-11-13T05:45:28.385Z,0
2016-11-13T05:46:28.421Z,0
2016-11-13T05:47:28.420Z,0
2016-11-13T05:48:28.442Z,0
2016-11-13T05:49:28.421Z,0
2016-11-13T05:50:28.415Z,0
2016-11-13T05:51:28.473Z,0
2016-11-13T05:52:28.409Z,0
2016-11-13T05:53:28.428Z,0
2016-11-13T05:54:28.465Z,0
2016-11-13T05:55:28.397Z,0
2016-11-13T05:56:28.472Z,0
2016-11-13T05:57:28.425Z,0
2016-11-13T05:58:28.441Z,0
2016-11-13T05:59:28.486Z,0
2016-11-13T06:00:28.518Z,0
2016-11-13T06:01:28.480Z,0
2016-11-13T06:02:28.512Z,0
2016-11-13T06:03:28.448Z,0
2016-11-13T06:04:28.384Z,0
2016-11-13T06:05:28.413Z,0
2016-11-13T06:06:28.461Z,0
2016-11-13T06:07:28.460Z,0
2016-11-13T06:08:28.499Z,0
2016-11-13T06:09:28.489Z,0
2016-11-13T06:10:28.429Z,0
2016-11-13T06:11:28.453Z,0
2016-11-13T06:12:28.434Z,0
2016-11-13T06:13:28.460Z,0
2016-11-13T06:14:28.418Z,0
2016-11-13T06:15:28.438Z,0
2016-11-13T06:16:28.438Z,0
2016-11-13T06:17:28.516Z,0
2016-11-13T06:18:28.409Z,0
2016-11-13T06:19:28.559Z,0
2016-11-13T06:20:28.502Z,0
2016-11-13T06:21:28.469Z,0
2016-11-13T06:22:28.454Z,0
2016-11-13T06:23:28.533Z,0
2016-11-13T06:24:28.508Z,0
2016-11-13T06:25:28.514Z,0
2016-11-13T06:26:28.589Z,0
2016-11-13T06:27:28.492Z,0
2016-11-13T06:28:28.463Z,0
2016-11-13T06:29:29.119Z,0
2016-11-13T06:30:28.480Z,0
2016-11-13T06:31:28.500Z,0
2016-11-13T06:32:28.492Z,0
2016-11-13T06:33:28.587Z,0
2016-11-13T06:34:28.436Z,0
2016-11-13T06:35:28.442Z,0
2016-11-13T06:36:28.480Z,0
2016-11-13T06:37:28.542Z,0
2016-11-13T06:38:28.403Z,0
2016-11-13T06:39:28.531Z,0
2016-11-13T06:40:28.473Z,0
2016-11-13T06:41:28.435Z,0
2016-11-13T06:42:28.457Z,0
2016-11-13T06:43:28.449Z,0
2016-11-13T06:44:28.482Z,0
2016-11-13T06:45:28.474Z,0
2016-11-13T06:46:28.503Z,0
2016-11-13T06:47:28.501Z,5
2016-11-13T06:48:28.453Z,5
2016-11-13T06:49:28.450Z,5
2016-11-13T06:50:28.476Z,5
2016-11-13T06:51:28.460Z,5
2016-11-13T06:52:28.429Z,5
2016-11-13T06:53:28.476Z,5
2016-11-13T06:54:28.450Z,5
2016-11-13T06:55:28.439Z,10
2016-11-13T06:56:28.452Z,10
2016-11-13T06:57:28.505Z,10
2016-11-13T06:58:28.482Z,10
2016-11-13T06:59:28.517Z,10
2016-11-13T07:00:28.498Z,10
2016-11-13T07:01:28.481Z,10
2016-11-13T07:02:28.464Z,10
2016-11-13T07:03:29.097Z,10
2016-11-13T07:04:28.485Z,10
2016-11-13T07:05:28.479Z,15
2016-11-13T07:06:28.466Z,15
2016-11-13T07:07:28.474Z,15
2016-11-13T07:08:28.466Z,15
2016-11-13T07:09:28.457Z,15
2016-11-13T07:10:28.495Z,20
2016-11-13T07:11:28.444Z,20
2016-11-13T07:12:28.467Z,20
2016-11-13T07:13:28.482Z,20
2016-11-13T07:14:28.451Z,20
2016-11-13T07:15:28.535Z,20
2016-11-13T07:16:28.466Z,25
2016-11-13T07:17:28.489Z,25
2016-11-13T07:18:28.997Z,25
2016-11-13T07:19:28.469Z,25
2016-11-13T07:20:28.474Z,25
2016-11-13T07:21:28.448Z,25
2016-11-13T07:22:28.460Z,25
2016-11-13T07:23:28.458Z,25
2016-11-13T07:24:28.474Z,25
2016-11-13T07:25:28.514Z,25
2016-11-13T07:26:28.447Z,30
2016-11-13T07:27:28.453Z,30
2016-11-13T07:28:28.476Z,30
2016-11-13T07:29:28.501Z,30
2016-11-13T07:30:28.456Z,35
2016-11-13T07:31:28.487Z,35
2016-11-13T07:32:28.546Z,35
2016-11-13T07:33:28.479Z,40
2016-11-13T07:34:28.485Z,40
2016-11-13T07:35:28.512Z,40
2016-11-13T07:36:28.582Z,45
2016-11-13T07:37:28.523Z,45
2016-11-13T07:38:28.531Z,45
2016-11-13T07:39:28.536Z,45
2016-11-13T07:40:28.510Z,50
2016-11-13T07:41:28.563Z,50
2016-11-13T07:42:28.579Z,50
2016-11-13T07:43:28.508Z,50
2016-11-13T07:44:28.631Z,50
2016-11-13T07:45:28.571Z,50
2016-11-13T07:46:28.518Z,50
2016-11-13T07:47:28.518Z,50
2016-11-13T07:48:28.490Z,50
2016-11-13T07:49:28.516Z,50
2016-11-13T07:50:28.482Z,50
2016-11-13T07:51:28.508Z,50
2016-11-13T07:52:28.550Z,50
2016-11-13T07:53:28.541Z,50
2016-11-13T07:54:28.636Z,50
2016-11-13T07:55:28.660Z,50
2016-11-13T07:56:28.582Z,50
2016-11-13T07:57:28.585Z,55
2016-11-13T07:58:28.551Z,55
2016-11-13T07:59:28.597Z,55
2016-11-13T08:00:28.551Z,60
2016-11-13T08:01:28.499Z,60
2016-11-13T08:02:28.534Z,60
2016-11-13T08:03:28.509Z,65
2016-11-13T08:04:28.636Z,65
2016-11-13T08:05:28.569Z,65
2016-11-13T08:06:28.479Z,65
2016-11-13T08:07:28.490Z,65
2016-11-13T08:08:28.489Z,70
2016-11-13T08:09:28.487Z,70
2016-11-13T08:10:28.522Z,70
2016-11-13T08:11:28.477Z,70
2016-11-13T08:12:28.503Z,70
2016-11-13T08:13:28.508Z,70
2016-11-13T08:14:28.642Z,70
2016-11-13T08:15:28.592Z,70
2016-11-13T08:16:28.566Z,75
2016-11-13T08:17:28.604Z,75
2016-11-13T08:18:28.567Z,75
2016-11-13T08:19:28.585Z,80
2016-11-13T08:20:28.604Z,80
2016-11-13T08:21:28.563Z,85
2016-11-13T08:22:28.538Z,85
2016-11-13T08:23:28.509Z,90
2016-11-13T08:24:28.569Z,90
2016-11-13T08:25:29.356Z,90
2016-11-13T08:26:28.566Z,90
2016-11-13T08:27:28.525Z,90
2016-11-13T08:28:28.515Z,95
2016-11-13T08:29:28.533Z,95
2016-11-13T08:30:28.519Z,95
2016-11-13T08:31:28.536Z,95
2016-11-13T08:32:28.540Z,95
2016-11-13T08:33:28.502Z,90
2016-11-13T08:34:28.559Z,100
2016-11-13T08:35:28.508Z,95
2016-11-13T08:36:29.133Z,95
2016-11-13T08:37:28.517Z,95
2016-11-13T08:38:28.562Z,100
2016-11-13T08:39:28.604Z,100
2016-11-13T08:40:28.528Z,100
2016-11-13T08:41:28.519Z,100
2016-11-13T08:42:28.551Z,100
2016-11-13T08:43:28.527Z,100
2016-11-13T08:44:28.566Z,100
2016-11-13T08:45:28.557Z,100
2016-11-13T08:46:28.527Z,100
2016-11-13T08:47:28.549Z,105
2016-11-13T08:48:28.563Z,105
2016-11-13T08:49:28.592Z,105
2016-11-13T08:50:28.582Z,110
2016-11-13T08:51:28.586Z,110
2016-11-13T08:52:29.141Z,110
2016-11-13T08:53:28.620Z,115
2016-11-13T08:54:28.612Z,115
2016-11-13T08:55:28.661Z,120
2016-11-13T08:56:28.655Z,120
2016-11-13T08:57:28.701Z,125
2016-11-13T08:58:28.633Z,125
2016-11-13T08:59:28.627Z,130
2016-11-13T09:00:28.847Z,130
2016-11-13T09:01:29.529Z,130
2016-11-13T09:02:28.670Z,130
2016-11-13T09:03:28.637Z,130
2016-11-13T09:04:28.740Z,130
2016-11-13T09:05:28.684Z,130
2016-11-13T09:06:28.779Z,130
2016-11-13T09:07:28.716Z,135
2016-11-13T09:08:29.285Z,135
2016-11-13T09:09:28.860Z,135
2016-11-13T09:10:28.688Z,135
2016-11-13T09:11:28.816Z,135
2016-11-13T09:12:28.858Z,135
2016-11-13T09:13:28.722Z,135
2016-11-13T09:14:28.764Z,135
2016-11-13T09:15:28.738Z,135
2016-11-13T09:16:28.761Z,135
2016-11-13T09:17:28.784Z,135
2016-11-13T09:18:29.354Z,135
2016-11-13T09:19:28.835Z,135
2016-11-13T09:20:29.026Z,135
2016-11-13T09:21:29.388Z,140
2016-11-13T09:22:28.780Z,140
2016-11-13T09:23:28.757Z,145
2016-11-13T09:24:28.773Z,150
2016-11-13T09:25:28.944Z,150
2016-11-13T09:26:28.728Z,155
2016-11-13T09:27:29.333Z,160
2016-11-13T09:28:28.825Z,160
2016-11-13T09:29:29.279Z,165
2016-11-13T09:30:28.728Z,165
2016-11-13T09:31:28.898Z,165
2016-11-13T09:32:28.800Z,165
2016-11-13T09:33:29.027Z,170
2016-11-13T09:34:28.757Z,165
2016-11-13T09:35:28.825Z,170
2016-11-13T09:36:28.883Z,170
2016-11-13T09:37:28.717Z,180
2016-11-13T09:38:28.827Z,170
2016-11-13T09:39:29.355Z,175
2016-11-13T09:40:28.847Z,175
2016-11-13T09:41:29.122Z,175
2016-11-13T09:42:28.836Z,175
2016-11-13T09:43:29.519Z,170
2016-11-13T09:44:28.896Z,170
2016-11-13T09:45:29.340Z,170
2016-11-13T09:46:29.320Z,170
2016-11-13T09:47:28.675Z,165
2016-11-13T09:48:28.636Z,170
2016-11-13T09:49:28.868Z,165
2016-11-13T09:50:28.604Z,160
2016-11-13T09:51:28.559Z,160
2016-11-13T09:52:28.586Z,160
2016-11-13T09:53:28.794Z,160
2016-11-13T09:54:28.861Z,160
2016-11-13T09:55:28.552Z,160
2016-11-13T09:56:28.579Z,160
2016-11-13T09:57:28.581Z,160
2016-11-13T09:58:28.608Z,160
2016-11-13T09:59:28.576Z,160
2016-11-13T10:00:29.305Z,160
2016-11-13T10:01:28.592Z,160
2016-11-13T10:02:29.416Z,160
2016-11-13T10:03:28.642Z,160
2016-11-13T10:04:28.599Z,160
2016-11-13T10:05:28.573Z,160
2016-11-13T10:06:28.651Z,160
2016-11-13T10:07:28.591Z,160
2016-11-13T10:08:28.551Z,160
2016-11-13T10:09:28.687Z,160
2016-11-13T10:10:28.722Z,160
2016-11-13T10:11:28.576Z,160
2016-11-13T10:12:28.640Z,165
2016-11-13T10:13:28.719Z,165
2016-11-13T10:14:28.672Z,165
2016-11-13T10:15:28.680Z,170
2016-11-13T10:16:28.617Z,170
2016-11-13T10:17:28.675Z,170
2016-11-13T10:18:28.635Z,170
2016-11-13T10:19:28.552Z,175
2016-11-13T10:20:28.738Z,175
2016-11-13T10:21:28.569Z,185
2016-11-13T10:22:28.586Z,180
2016-11-13T10:23:28.568Z,180
2016-11-13T10:24:28.646Z,180
2016-11-13T10:25:28.607Z,180
2016-11-13T10:26:28.687Z,185
2016-11-13T10:27:29.599Z,190
2016-11-13T10:28:28.728Z,190
2016-11-13T10:29:29.408Z,190
2016-11-13T10:30:28.797Z,195
2016-11-13T10:31:28.624Z,195
2016-11-13T10:32:28.630Z,195
2016-11-13T10:33:28.726Z,195
2016-11-13T10:34:28.711Z,200
2016-11-13T10:35:28.700Z,200
2016-11-13T10:36:28.637Z,200
2016-11-13T10:37:28.639Z,200
2016-11-13T10:38:28.683Z,200
2016-11-13T10:39:28.699Z,205
2016-11-13T10:40:28.626Z,205
2016-11-13T10:41:28.611Z,205
2016-11-13T10:42:28.610Z,205
2016-11-13T10:43:28.655Z,205
2016-11-13T10:44:28.643Z,200
2016-11-13T10:45:28.636Z,200
2016-11-13T10:46:28.603Z,200
2016-11-13T10:47:28.544Z,195
2016-11-13T10:48:28.614Z,195
2016-11-13T10:49:28.703Z,195
2016-11-13T10:50:28.680Z,195
2016-11-13T10:51:28.597Z,195
2016-11-13T10:52:28.644Z,195
2016-11-13T10:53:28.610Z,195
2016-11-13T10:54:28.789Z,190
2016-11-13T10:55:28.710Z,190
2016-11-13T10:56:28.669Z,195
2016-11-13T10:57:28.636Z,195
2016-11-13T10:58:28.633Z,195
2016-11-13T10:59:28.710Z,195
2016-11-13T11:00:28.653Z,195
2016-11-13T11:01:28.629Z,195
2016-11-13T11:02:28.860Z,195
2016-11-13T11:03:29.619Z,195
2016-11-13T11:04:28.636Z,190
2016-11-13T11:05:28.672Z,190
2016-11-13T11:06:28.604Z,190
2016-11-13T11:07:28.641Z,190
2016-11-13T11:08:28.636Z,185
2016-11-13T11:09:28.658Z,185
2016-11-13T11:10:28.754Z,185
2016-11-13T11:11:28.643Z,185
2016-11-13T11:12:28.658Z,185
2016-11-13T11:13:28.659Z,185
2016-11-13T11:14:28.665Z,185
2016-11-13T11:15:28.611Z,185
2016-11-13T11:16:28.617Z,185
2016-11-13T11:17:28.633Z,185
2016-11-13T11:18:28.608Z,180
2016-11-13T11:19:29.276Z,180
2016-11-13T11:20:28.643Z,180
2016-11-13T11:21:28.634Z,180
2016-11-13T11:22:38.528Z,180
2016-11-13T11:23:29.860Z,185
2016-11-13T11:24:30.885Z,185
2016-11-13T11:25:42.691Z,185
2016-11-13T11:26:33.235Z,185
2016-11-13T11:27:28.607Z,185
2016-11-13T11:28:28.640Z,185
2016-11-13T11:29:28.626Z,185
2016-11-13T11:30:28.633Z,190
2016-11-13T11:31:28.642Z,190
2016-11-13T11:32:28.604Z,190
2016-11-13T11:33:28.620Z,195
2016-11-13T11:34:29.209Z,190
2016-11-13T11:35:28.613Z,190
2016-11-13T11:36:28.632Z,190
2016-11-13T11:37:28.701Z,190
2016-11-13T11:38:28.627Z,190
2016-11-13T11:39:28.623Z,185
2016-11-13T11:40:28.634Z,185
2016-11-13T11:41:28.652Z,185
2016-11-13T11:42:28.685Z,185
2016-11-13T11:43:28.645Z,185
2016-11-13T11:44:29.363Z,185
2016-11-13T11:45:28.679Z,185
2016-11-13T11:46:28.627Z,185
2016-11-13T11:47:28.618Z,185
2016-11-13T11:48:39.189Z,185
2016-11-13T11:49:31.295Z,185
2016-11-13T11:50:32.323Z,185
2016-11-13T11:51:30.592Z,185
2016-11-13T11:52:28.670Z,185
2016-11-13T11:53:29.489Z,185
2016-11-13T11:54:28.687Z,180
2016-11-13T11:55:29.097Z,180
2016-11-13T11:56:29.029Z,180
2016-11-13T11:57:28.674Z,180
2016-11-13T11:58:28.719Z,175
2016-11-13T11:59:28.697Z,175
2016-11-13T12:00:28.678Z,170
2016-11-13T12:01:28.608Z,170
2016-11-13T12:02:28.649Z,170
2016-11-13T12:03:29.183Z,165
2016-11-13T12:04:29.406Z,165
2016-11-13T12:05:31.077Z,165
2016-11-13T12:06:29.114Z,160
2016-11-13T12:07:28.649Z,160
2016-11-13T12:08:28.636Z,155
2016-11-13T12:09:29.157Z,155
2016-11-13T12:10:29.017Z,135
2016-11-13T12:11:28.642Z,135
2016-11-13T12:12:29.159Z,135
2016-11-13T12:13:29.179Z,130
2016-11-13T12:14:29.210Z,130
2016-11-13T12:15:28.734Z,130
2016-11-13T12:16:28.675Z,130
2016-11-13T12:17:29.438Z,125
2016-11-13T12:18:30.247Z,125
2016-11-13T12:19:29.553Z,125
2016-11-13T12:20:28.710Z,125
2016-11-13T12:21:28.636Z,125
2016-11-13T12:22:28.967Z,125
2016-11-13T12:23:28.747Z,145
2016-11-13T12:24:28.694Z,145
2016-11-13T12:25:28.720Z,145
2016-11-13T12:26:29.053Z,145
2016-11-13T12:27:30.998Z,145
2016-11-13T12:28:29.425Z,145
2016-11-13T12:29:29.555Z,150
2016-11-13T12:30:29.722Z,150
2016-11-13T12:31:28.972Z,150
2016-11-13T12:32:28.734Z,150
2016-11-13T12:33:29.232Z,150
2016-11-13T12:34:28.728Z,150
2016-11-13T12:35:29.012Z,150
2016-11-13T12:36:28.701Z,150
2016-11-13T12:37:28.956Z,145
2016-11-13T12:38:29.394Z,145
2016-11-13T12:39:28.742Z,145
2016-11-13T12:40:28.684Z,145
2016-11-13T12:41:28.691Z,145
2016-11-13T12:42:28.697Z,140
2016-11-13T12:43:28.684Z,140
2016-11-13T12:44:28.987Z,140
2016-11-13T12:45:28.775Z,140
2016-11-13T12:46:28.717Z,145
2016-11-13T12:47:29.110Z,135
2016-11-13T12:48:29.311Z,135
2016-11-13T12:49:28.765Z,135
2016-11-13T12:50:28.816Z,135
2016-11-13T12:51:28.786Z,130
2016-11-13T12:52:28.676Z,130
2016-11-13T12:53:28.741Z,130
2016-11-13T12:54:28.783Z,125
2016-11-13T12:55:28.713Z,125
2016-11-13T12:56:28.743Z,120
2016-11-13T12:57:28.745Z,115
2016-11-13T12:58:29.068Z,115
2016-11-13T12:59:28.746Z,115
2016-11-13T13:00:28.793Z,110
2016-11-13T13:01:28.729Z,110
2016-11-13T13:02:29.043Z,110
2016-11-13T13:03:28.941Z,105
2016-11-13T13:04:28.727Z,105
2016-11-13T13:05:29.079Z,105
2016-11-13T13:06:28.797Z,105
2016-11-13T13:07:28.803Z,105
2016-11-13T13:08:28.748Z,105
2016-11-13T13:09:28.745Z,105
2016-11-13T13:10:28.830Z,105
2016-11-13T13:11:28.871Z,105
2016-11-13T13:12:28.717Z,105
2016-11-13T13:13:28.803Z,105
2016-11-13T13:14:28.968Z,105
2016-11-13T13:15:28.766Z,105
2016-11-13T13:16:28.832Z,100
2016-11-13T13:17:28.791Z,100
2016-11-13T13:18:28.865Z,100
2016-11-13T13:19:28.786Z,100
2016-11-13T13:20:28.804Z,100
2016-11-13T13:21:28.788Z,95
2016-11-13T13:22:28.728Z,95
2016-11-13T13:23:28.727Z,95
2016-11-13T13:24:28.696Z,95
2016-11-13T13:25:28.769Z,95
2016-11-13T13:26:28.794Z,95
2016-11-13T13:27:28.746Z,90
2016-11-13T13:28:28.830Z,90
2016-11-13T13:29:28.766Z,90
2016-11-13T13:30:28.864Z,85
2016-11-13T13:31:28.826Z,85
2016-11-13T13:32:28.802Z,80
2016-11-13T13:33:28.961Z,80
2016-11-13T13:34:28.788Z,80
2016-11-13T13:35:29.924Z,75
2016-11-13T13:36:28.977Z,75
2016-11-13T13:37:28.865Z,75
2016-11-13T13:38:28.757Z,75
2016-11-13T13:39:28.851Z,70
2016-11-13T13:40:28.978Z,70
2016-11-13T13:41:28.843Z,70
2016-11-13T13:42:28.846Z,70
2016-11-13T13:43:29.670Z,70
2016-11-13T13:44:28.777Z,70
2016-11-13T13:45:28.912Z,70
2016-11-13T13:46:28.750Z,70
2016-11-13T13:47:29.029Z,70
2016-11-13T13:48:28.827Z,65
2016-11-13T13:49:29.836Z,65
2016-11-13T13:50:28.825Z,65
2016-11-13T13:51:28.824Z,65
2016-11-13T13:52:28.825Z,65
2016-11-13T13:53:28.866Z,65
2016-11-13T13:54:28.838Z,60
2016-11-13T13:55:28.874Z,60
2016-11-13T13:56:28.827Z,60
2016-11-13T13:57:28.867Z,60
2016-11-13T13:58:28.975Z,60
2016-11-13T13:59:29.072Z,60
2016-11-13T14:00:29.003Z,60
2016-11-13T14:01:29.100Z,55
2016-11-13T14:02:28.920Z,60
2016-11-13T14:03:29.242Z,60
2016-11-13T14:04:28.895Z,60
2016-11-13T14:05:29.004Z,60
2016-11-13T14:06:28.938Z,60
2016-11-13T14:07:28.909Z,60
2016-11-13T14:08:28.965Z,60
2016-11-13T14:09:28.916Z,55
2016-11-13T14:10:28.996Z,55
2016-11-13T14:11:28.981Z,55
2016-11-13T14:12:29.025Z,55
2016-11-13T14:13:29.367Z,55
2016-11-13T14:14:29.012Z,55
2016-11-13T14:15:29.036Z,55
2016-11-13T14:16:29.025Z,55
2016-11-13T14:17:29.029Z,55
2016-11-13T14:18:29.650Z,50
2016-11-13T14:19:28.780Z,50
2016-11-13T14:20:29.094Z,50